sensor_id;sensor_type;location;lat;lon;timestamp;pressure;altitude;pressure_sealevel;temperature;humidity
47753;BME280;2038;51.728;6.674;2022-08-19T00:01:34;100645.59;;;20.00;100.00
47753;BME280;2038;51.728;6.674;2022-08-19T00:04:06;100648.13;;;19.99;100.00
47753;BME280;2038;51.728;6.674;2022-08-19T00:06:36;100646.44;;;19.99;100.00
47753;BME280;2038;51.728;6.674;2022-08-19T00:09:06;100651.81;;;20.07;100.00
47753;BME280;2038;51.728;6.674;2022-08-19T00:11:34;100649.06;;;20.01;100.00
47753;BME280;2038;51.728;6.674;2022-08-19T00:14:04;100649.06;;;20.01;100.00
47753;BME280;2038;51.728;6.674;2022-08-19T00:16:32;100645.47;;;19.96;100.00
47753;BME280;2038;51.728;6.674;2022-08-19T00:18:59;100650.53;;;19.91;100.00
47753;BME280;2038;51.728;6.674;2022-08-19T00:21:25;100654.69;;;19.85;100.00
47753;BME280;2038;51.728;6.674;2022-08-19T00:23:54;100648.66;;;19.53;100.00
47753;BME280;2038;51.728;6.674;2022-08-19T00:26:25;100651.97;;;19.49;100.00
47753;BME280;2038;51.728;6.674;2022-08-19T00:28:53;100645.00;;;19.46;100.00
47753;BME280;2038;51.728;6.674;2022-08-19T00:31:20;100653.75;;;19.51;100.00
47753;BME280;2038;51.728;6.674;2022-08-19T00:33:47;100650.09;;;19.43;100.00
47753;BME280;2038;51.728;6.674;2022-08-19T00:36:15;100654.59;;;19.50;100.00
47753;BME280;2038;51.728;6.674;2022-08-19T00:38:43;100639.97;;;19.51;100.00
47753;BME280;2038;51.728;6.674;2022-08-19T00:41:14;100645.13;;;19.51;100.00
47753;BME280;2038;51.728;6.674;2022-08-19T00:43:43;100647.03;;;19.58;100.00
47753;BME280;2038;51.728;6.674;2022-08-19T00:46:21;100645.19;;;19.54;100.00
47753;BME280;2038;51.728;6.674;2022-08-19T00:48:47;100644.34;;;19.53;100.00
47753;BME280;2038;51.728;6.674;2022-08-19T00:51:14;100642.63;;;19.54;100.00
47753;BME280;2038;51.728;6.674;2022-08-19T00:53:40;100637.63;;;19.60;100.00
47753;BME280;2038;51.728;6.674;2022-08-19T00:56:07;100646.81;;;19.49;100.00
47753;BME280;2038;51.728;6.674;2022-08-19T00:58:35;100645.59;;;19.38;100.00
47753;BME280;2038;51.728;6.674;2022-08-19T01:01:04;100647.72;;;19.23;100.00
47753;BME280;2038;51.728;6.674;2022-08-19T01:03:30;100640.63;;;19.15;100.00
47753;BME280;2038;51.728;6.674;2022-08-19T01:05:57;100638.56;;;19.04;100.00
47753;BME280;2038;51.728;6.674;2022-08-19T01:08:23;100638.53;;;19.02;100.00
47753;BME280;2038;51.728;6.674;2022-08-19T01:10:53;100641.91;;;19.00;100.00
47753;BME280;2038;51.728;6.674;2022-08-19T01:13:29;100637.97;;;19.12;100.00
47753;BME280;2038;51.728;6.674;2022-08-19T01:16:07;100636.06;;;19.07;100.00
47753;BME280;2038;51.728;6.674;2022-08-19T01:18:39;100635.41;;;19.12;100.00
47753;BME280;2038;51.728;6.674;2022-08-19T01:24:00;100640.13;;;18.97;100.00
47753;BME280;2038;51.728;6.674;2022-08-19T01:26:27;100640.78;;;18.92;100.00
47753;BME280;2038;51.728;6.674;2022-08-19T01:28:55;100643.38;;;18.92;100.00
47753;BME280;2038;51.728;6.674;2022-08-19T01:31:26;100646.69;;;18.88;100.00
47753;BME280;2038;51.728;6.674;2022-08-19T01:33:57;100642.28;;;18.84;100.00
47753;BME280;2038;51.728;6.674;2022-08-19T01:36:41;100649.94;;;18.81;100.00
47753;BME280;2038;51.728;6.674;2022-08-19T01:39:25;100643.75;;;18.76;100.00
47753;BME280;2038;51.728;6.674;2022-08-19T01:41:52;100645.59;;;18.80;100.00
47753;BME280;2038;51.728;6.674;2022-08-19T01:44:20;100642.22;;;18.82;100.00
47753;BME280;2038;51.728;6.674;2022-08-19T01:46:50;100643.88;;;18.80;100.00
47753;BME280;2038;51.728;6.674;2022-08-19T01:49:22;100644.63;;;18.76;100.00
47753;BME280;2038;51.728;6.674;2022-08-19T01:51:49;100641.97;;;18.75;100.00
47753;BME280;2038;51.728;6.674;2022-08-19T01:54:17;100643.81;;;18.77;100.00
47753;BME280;2038;51.728;6.674;2022-08-19T01:56:45;100641.00;;;18.71;100.00
47753;BME280;2038;51.728;6.674;2022-08-19T01:59:17;100646.53;;;18.55;100.00
47753;BME280;2038;51.728;6.674;2022-08-19T02:01:46;100648.69;;;18.43;100.00
47753;BME280;2038;51.728;6.674;2022-08-19T02:04:12;100649.41;;;18.39;100.00
47753;BME280;2038;51.728;6.674;2022-08-19T02:06:39;100650.72;;;18.26;100.00
47753;BME280;2038;51.728;6.674;2022-08-19T02:09:06;100656.34;;;18.14;100.00
47753;BME280;2038;51.728;6.674;2022-08-19T02:11:35;100654.34;;;18.06;100.00
47753;BME280;2038;51.728;6.674;2022-08-19T02:14:06;100657.63;;;18.02;100.00
47753;BME280;2038;51.728;6.674;2022-08-19T02:16:33;100649.97;;;18.03;100.00
47753;BME280;2038;51.728;6.674;2022-08-19T02:19:01;100643.84;;;18.00;100.00
47753;BME280;2038;51.728;6.674;2022-08-19T02:21:29;100644.50;;;17.94;100.00
47753;BME280;2038;51.728;6.674;2022-08-19T02:23:56;100641.00;;;17.92;100.00
47753;BME280;2038;51.728;6.674;2022-08-19T02:26:23;100631.56;;;17.93;100.00
47753;BME280;2038;51.728;6.674;2022-08-19T02:28:51;100630.63;;;17.91;100.00
47753;BME280;2038;51.728;6.674;2022-08-19T02:31:20;100633.97;;;17.88;100.00
47753;BME280;2038;51.728;6.674;2022-08-19T02:33:49;100635.78;;;17.91;100.00
47753;BME280;2038;51.728;6.674;2022-08-19T02:36:17;100639.88;;;17.86;100.00
47753;BME280;2038;51.728;6.674;2022-08-19T02:38:44;100635.44;;;17.82;100.00
47753;BME280;2038;51.728;6.674;2022-08-19T02:41:17;100643.41;;;17.88;100.00
47753;BME280;2038;51.728;6.674;2022-08-19T02:43:47;100648.72;;;17.92;100.00
47753;BME280;2038;51.728;6.674;2022-08-19T02:46:19;100656.47;;;17.92;100.00
47753;BME280;2038;51.728;6.674;2022-08-19T02:48:50;100652.03;;;17.88;100.00
47753;BME280;2038;51.728;6.674;2022-08-19T02:51:20;100653.47;;;17.80;100.00
47753;BME280;2038;51.728;6.674;2022-08-19T02:53:50;100655.81;;;17.74;100.00
47753;BME280;2038;51.728;6.674;2022-08-19T02:56:17;100648.78;;;17.70;100.00
47753;BME280;2038;51.728;6.674;2022-08-19T02:58:45;100645.41;;;17.71;100.00
47753;BME280;2038;51.728;6.674;2022-08-19T03:01:19;100651.50;;;17.73;100.00
47753;BME280;2038;51.728;6.674;2022-08-19T03:03:58;100652.34;;;17.73;100.00
47753;BME280;2038;51.728;6.674;2022-08-19T03:06:29;100648.97;;;17.74;100.00
47753;BME280;2038;51.728;6.674;2022-08-19T03:08:56;100649.91;;;17.76;100.00
47753;BME280;2038;51.728;6.674;2022-08-19T03:11:27;100653.03;;;17.68;100.00
47753;BME280;2038;51.728;6.674;2022-08-19T03:13:55;100653.03;;;17.68;100.00
47753;BME280;2038;51.728;6.674;2022-08-19T03:16:24;100652.97;;;17.66;100.00
47753;BME280;2038;51.728;6.674;2022-08-19T03:18:53;100656.53;;;17.70;100.00
47753;BME280;2038;51.728;6.674;2022-08-19T03:21:23;100656.44;;;17.67;100.00
47753;BME280;2038;51.728;6.674;2022-08-19T03:23:54;100658.19;;;17.68;100.00
47753;BME280;2038;51.728;6.674;2022-08-19T03:26:21;100659.06;;;17.68;100.00
47753;BME280;2038;51.728;6.674;2022-08-19T03:28:47;100659.09;;;17.70;100.00
47753;BME280;2038;51.728;6.674;2022-08-19T03:31:20;100655.81;;;17.74;100.00
47753;BME280;2038;51.728;6.674;2022-08-19T03:33:49;100664.59;;;17.79;100.00
47753;BME280;2038;51.728;6.674;2022-08-19T03:36:19;100656.06;;;17.82;100.00
47753;BME280;2038;51.728;6.674;2022-08-19T03:38:51;100653.56;;;17.83;100.00
47753;BME280;2038;51.728;6.674;2022-08-19T03:41:23;100642.53;;;17.87;100.00
47753;BME280;2038;51.728;6.674;2022-08-19T03:43:51;100650.28;;;17.87;100.00
47753;BME280;2038;51.728;6.674;2022-08-19T03:46:21;100641.66;;;17.87;100.00
47753;BME280;2038;51.728;6.674;2022-08-19T03:48:51;100641.50;;;17.82;100.00
47753;BME280;2038;51.728;6.674;2022-08-19T03:51:30;100640.50;;;17.78;100.00
47753;BME280;2038;51.728;6.674;2022-08-19T03:54:01;100634.38;;;17.75;100.00
47753;BME280;2038;51.728;6.674;2022-08-19T03:56:30;100640.47;;;17.77;100.00
47753;BME280;2038;51.728;6.674;2022-08-19T03:58:57;100641.28;;;17.76;100.00
47753;BME280;2038;51.728;6.674;2022-08-19T04:01:27;100645.47;;;17.72;100.00
47753;BME280;2038;51.728;6.674;2022-08-19T04:03:56;100648.78;;;17.70;100.00
47753;BME280;2038;51.728;6.674;2022-08-19T04:06:26;100639.19;;;17.66;100.00
47753;BME280;2038;51.728;6.674;2022-08-19T04:08:56;100640.81;;;17.62;100.00
47753;BME280;2038;51.728;6.674;2022-08-19T04:11:27;100641.59;;;17.60;100.00
47753;BME280;2038;51.728;6.674;2022-08-19T04:13:55;100638.94;;;17.58;100.00
47753;BME280;2038;51.728;6.674;2022-08-19T04:16:25;100635.59;;;17.61;100.00
47753;BME280;2038;51.728;6.674;2022-08-19T04:18:56;100639.00;;;17.60;100.00
47753;BME280;2038;51.728;6.674;2022-08-19T04:21:27;100633.78;;;17.58;100.00
47753;BME280;2038;51.728;6.674;2022-08-19T04:23:55;100632.97;;;17.59;100.00
47753;BME280;2038;51.728;6.674;2022-08-19T04:26:29;100630.38;;;17.59;100.00
47753;BME280;2038;51.728;6.674;2022-08-19T04:29:02;100638.13;;;17.59;100.00
47753;BME280;2038;51.728;6.674;2022-08-19T04:31:34;100642.31;;;17.57;100.00
47753;BME280;2038;51.728;6.674;2022-08-19T04:34:03;100649.03;;;17.54;100.00
47753;BME280;2038;51.728;6.674;2022-08-19T04:36:34;100651.59;;;17.52;100.00
47753;BME280;2038;51.728;6.674;2022-08-19T04:39:16;100654.19;;;17.54;100.00
47753;BME280;2038;51.728;6.674;2022-08-19T04:41:45;100653.38;;;17.55;100.00
47753;BME280;2038;51.728;6.674;2022-08-19T04:44:35;100654.16;;;17.52;100.00
47753;BME280;2038;51.728;6.674;2022-08-19T04:47:02;100650.59;;;17.49;100.00
47753;BME280;2038;51.728;6.674;2022-08-19T04:49:31;100639.69;;;17.56;100.00
47753;BME280;2038;51.728;6.674;2022-08-19T04:51:58;100651.81;;;17.58;100.00
47753;BME280;2038;51.728;6.674;2022-08-19T04:54:25;100646.84;;;17.63;100.00
47753;BME280;2038;51.728;6.674;2022-08-19T04:56:52;100655.56;;;17.66;100.00
47753;BME280;2038;51.728;6.674;2022-08-19T04:59:20;100659.97;;;17.69;100.00
47753;BME280;2038;51.728;6.674;2022-08-19T05:01:48;100666.13;;;17.74;100.00
47753;BME280;2038;51.728;6.674;2022-08-19T05:04:17;100658.53;;;17.77;100.00
47753;BME280;2038;51.728;6.674;2022-08-19T05:06:48;100672.25;;;17.77;100.00
47753;BME280;2038;51.728;6.674;2022-08-19T05:09:16;100670.41;;;17.73;100.00
47753;BME280;2038;51.728;6.674;2022-08-19T05:11:43;100672.22;;;17.76;100.00
47753;BME280;2038;51.728;6.674;2022-08-19T05:14:11;100673.16;;;17.78;100.00
47753;BME280;2038;51.728;6.674;2022-08-19T05:16:40;100668.94;;;17.80;100.00
47753;BME280;2038;51.728;6.674;2022-08-19T05:19:07;100675.97;;;17.86;100.00
47753;BME280;2038;51.728;6.674;2022-08-19T05:21:52;100668.56;;;17.95;100.00
47753;BME280;2038;51.728;6.674;2022-08-19T05:24:38;100684.44;;;18.05;100.00
47753;BME280;2038;51.728;6.674;2022-08-19T05:27:04;100686.50;;;18.15;100.00
47753;BME280;2038;51.728;6.674;2022-08-19T05:29:32;100688.53;;;18.25;100.00
47753;BME280;2038;51.728;6.674;2022-08-19T05:32:01;100691.66;;;18.41;100.00
47753;BME280;2038;51.728;6.674;2022-08-19T05:34:31;100684.19;;;18.50;100.00
47753;BME280;2038;51.728;6.674;2022-08-19T05:36:59;100684.72;;;18.65;100.00
47753;BME280;2038;51.728;6.674;2022-08-19T05:39:30;100690.06;;;18.71;100.00
47753;BME280;2038;51.728;6.674;2022-08-19T05:42:00;100694.75;;;18.83;100.00
47753;BME280;2038;51.728;6.674;2022-08-19T05:44:31;100688.09;;;18.89;100.00
47753;BME280;2038;51.728;6.674;2022-08-19T05:47:00;100687.34;;;18.93;100.00
47753;BME280;2038;51.728;6.674;2022-08-19T05:49:29;100692.75;;;19.01;100.00
47753;BME280;2038;51.728;6.674;2022-08-19T05:51:57;100688.69;;;19.09;100.00
47753;BME280;2038;51.728;6.674;2022-08-19T05:54:25;100692.41;;;19.18;100.00
47753;BME280;2038;51.728;6.674;2022-08-19T05:56:53;100693.69;;;19.33;100.00
47753;BME280;2038;51.728;6.674;2022-08-19T05:59:20;100687.97;;;19.43;100.00
47753;BME280;2038;51.728;6.674;2022-08-19T06:01:48;100682.28;;;19.54;100.00
47753;BME280;2038;51.728;6.674;2022-08-19T06:04:18;100686.75;;;19.60;100.00
47753;BME280;2038;51.728;6.674;2022-08-19T06:06:46;100676.63;;;19.68;100.00
47753;BME280;2038;51.728;6.674;2022-08-19T06:09:14;100682.81;;;19.73;100.00
47753;BME280;2038;51.728;6.674;2022-08-19T06:11:53;100678.66;;;19.79;100.00
47753;BME280;2038;51.728;6.674;2022-08-19T06:14:27;100683.13;;;19.85;100.00
47753;BME280;2038;51.728;6.674;2022-08-19T06:16:56;100681.50;;;19.88;100.00
47753;BME280;2038;51.728;6.674;2022-08-19T06:19:23;100688.56;;;19.94;100.00
47753;BME280;2038;51.728;6.674;2022-08-19T06:21:54;100683.47;;;19.97;100.00
47753;BME280;2038;51.728;6.674;2022-08-19T06:24:23;100689.72;;;20.05;100.00
47753;BME280;2038;51.728;6.674;2022-08-19T06:26:53;100683.16;;;20.19;100.00
47753;BME280;2038;51.728;6.674;2022-08-19T06:29:24;100696.53;;;20.34;100.00
47753;BME280;2038;51.728;6.674;2022-08-19T06:31:56;100700.09;;;20.38;100.00
47753;BME280;2038;51.728;6.674;2022-08-19T06:34:26;100697.53;;;20.39;100.00
47753;BME280;2038;51.728;6.674;2022-08-19T06:36:56;100698.44;;;20.41;100.00
47753;BME280;2038;51.728;6.674;2022-08-19T06:39:38;100698.56;;;20.46;100.00
47753;BME280;2038;51.728;6.674;2022-08-19T06:42:07;100705.56;;;20.50;100.00
47753;BME280;2038;51.728;6.674;2022-08-19T06:44:37;100706.53;;;20.55;100.00
47753;BME280;2038;51.728;6.674;2022-08-19T06:47:08;100702.41;;;20.62;100.00
47753;BME280;2038;51.728;6.674;2022-08-19T06:49:36;100699.00;;;20.64;100.00
47753;BME280;2038;51.728;6.674;2022-08-19T06:52:04;100704.34;;;20.70;100.00
47753;BME280;2038;51.728;6.674;2022-08-19T06:54:30;100698.47;;;20.79;100.00
47753;BME280;2038;51.728;6.674;2022-08-19T06:57:00;100689.94;;;20.83;100.00
47753;BME280;2038;51.728;6.674;2022-08-19T06:59:28;100690.97;;;20.89;100.00
47753;BME280;2038;51.728;6.674;2022-08-19T07:02:01;100695.44;;;20.96;100.00
47753;BME280;2038;51.728;6.674;2022-08-19T07:04:32;100700.84;;;21.06;100.00
47753;BME280;2038;51.728;6.674;2022-08-19T07:07:08;100710.34;;;21.07;100.00
47753;BME280;2038;51.728;6.674;2022-08-19T07:09:41;100701.94;;;21.15;100.00
47753;BME280;2038;51.728;6.674;2022-08-19T07:12:13;100701.94;;;21.15;100.00
47753;BME280;2038;51.728;6.674;2022-08-19T07:14:43;100693.63;;;21.31;100.00
47753;BME280;2038;51.728;6.674;2022-08-19T07:17:12;100703.38;;;21.41;100.00
47753;BME280;2038;51.728;6.674;2022-08-19T07:19:39;100699.91;;;21.41;100.00
47753;BME280;2038;51.728;6.674;2022-08-19T07:22:08;100707.00;;;21.51;100.00
47753;BME280;2038;51.728;6.674;2022-08-19T07:24:37;100702.94;;;21.64;100.00
47753;BME280;2038;51.728;6.674;2022-08-19T07:27:06;100705.66;;;21.68;100.00
47753;BME280;2038;51.728;6.674;2022-08-19T07:29:34;100713.72;;;21.82;100.00
47753;BME280;2038;51.728;6.674;2022-08-19T07:32:03;100714.78;;;21.91;100.00
47753;BME280;2038;51.728;6.674;2022-08-19T07:34:31;100719.25;;;22.00;100.00
47753;BME280;2038;51.728;6.674;2022-08-19T07:37:04;100722.84;;;22.07;100.00
47753;BME280;2038;51.728;6.674;2022-08-19T07:39:34;100722.75;;;22.01;100.00
47753;BME280;2038;51.728;6.674;2022-08-19T07:42:08;100722.94;;;22.11;100.00
47753;BME280;2038;51.728;6.674;2022-08-19T07:44:36;100728.44;;;22.28;100.00
47753;BME280;2038;51.728;6.674;2022-08-19T07:47:04;100734.63;;;22.36;100.00
47753;BME280;2038;51.728;6.674;2022-08-19T07:49:31;100736.50;;;22.45;100.00
47753;BME280;2038;51.728;6.674;2022-08-19T07:52:06;100740.03;;;22.48;100.00
47753;BME280;2038;51.728;6.674;2022-08-19T07:54:37;100743.88;;;22.68;100.00
47753;BME280;2038;51.728;6.674;2022-08-19T07:57:05;100746.63;;;22.79;100.00
47753;BME280;2038;51.728;6.674;2022-08-19T07:59:31;100748.63;;;22.95;100.00
47753;BME280;2038;51.728;6.674;2022-08-19T08:01:58;100748.00;;;23.11;100.00
47753;BME280;2038;51.728;6.674;2022-08-19T08:04:27;100755.88;;;23.14;100.00
47753;BME280;2038;51.728;6.674;2022-08-19T08:07:13;100754.31;;;23.27;100.00
47753;BME280;2038;51.728;6.674;2022-08-19T08:09:59;100745.03;;;23.43;100.00
47753;BME280;2038;51.728;6.674;2022-08-19T08:12:30;100752.88;;;23.46;100.00
47753;BME280;2038;51.728;6.674;2022-08-19T08:15:05;100759.06;;;23.57;100.00
47753;BME280;2038;51.728;6.674;2022-08-19T08:17:34;100756.50;;;23.60;100.00
47753;BME280;2038;51.728;6.674;2022-08-19T08:20:05;100754.81;;;23.62;100.00
47753;BME280;2038;51.728;6.674;2022-08-19T08:22:33;100761.78;;;23.64;100.00
47753;BME280;2038;51.728;6.674;2022-08-19T08:25:21;100755.66;;;23.61;100.00
47753;BME280;2038;51.728;6.674;2022-08-19T08:27:49;100760.13;;;23.72;100.00
47753;BME280;2038;51.728;6.674;2022-08-19T08:30:19;100761.00;;;23.70;99.78
47753;BME280;2038;51.728;6.674;2022-08-19T08:32:48;100761.03;;;23.76;99.89
47753;BME280;2038;51.728;6.674;2022-08-19T08:35:19;100769.88;;;23.89;98.79
47753;BME280;2038;51.728;6.674;2022-08-19T08:37:49;100766.47;;;23.91;99.74
47753;BME280;2038;51.728;6.674;2022-08-19T08:46:07;100776.31;;;24.18;97.46
47753;BME280;2038;51.728;6.674;2022-08-19T08:52:03;100772.72;;;24.11;95.24
47753;BME280;2038;51.728;6.674;2022-08-19T08:54:37;100778.06;;;24.17;93.75
47753;BME280;2038;51.728;6.674;2022-08-19T08:57:20;100771.16;;;24.22;93.60
47753;BME280;2038;51.728;6.674;2022-08-19T08:59:54;100765.13;;;24.27;93.57
47753;BME280;2038;51.728;6.674;2022-08-19T09:02:23;100764.25;;;24.28;93.83
47753;BME280;2038;51.728;6.674;2022-08-19T09:04:50;100770.22;;;24.14;92.82
47753;BME280;2038;51.728;6.674;2022-08-19T09:10:02;100773.03;;;24.37;93.34
47753;BME280;2038;51.728;6.674;2022-08-19T09:12:47;100766.16;;;24.44;91.82
47753;BME280;2038;51.728;6.674;2022-08-19T09:15:25;100767.97;;;24.51;91.75
47753;BME280;2038;51.728;6.674;2022-08-19T09:18:00;100768.03;;;24.58;90.28
47753;BME280;2038;51.728;6.674;2022-08-19T09:20:27;100762.81;;;24.57;90.33
47753;BME280;2038;51.728;6.674;2022-08-19T09:22:54;100765.44;;;24.60;89.29
47753;BME280;2038;51.728;6.674;2022-08-19T09:25:22;100762.94;;;24.70;88.58
47753;BME280;2038;51.728;6.674;2022-08-19T09:27:50;100762.94;;;24.74;87.84
47753;BME280;2038;51.728;6.674;2022-08-19T09:30:28;100759.56;;;24.82;88.98
47753;BME280;2038;51.728;6.674;2022-08-19T09:32:56;100759.50;;;24.75;86.49
47753;BME280;2038;51.728;6.674;2022-08-19T09:35:25;100763.88;;;24.82;87.49
47753;BME280;2038;51.728;6.674;2022-08-19T09:37:55;100764.84;;;24.87;87.52
47753;BME280;2038;51.728;6.674;2022-08-19T09:40:23;100768.31;;;24.89;87.63
47753;BME280;2038;51.728;6.674;2022-08-19T09:42:49;100765.69;;;24.86;88.33
47753;BME280;2038;51.728;6.674;2022-08-19T09:45:18;100767.47;;;24.90;87.34
47753;BME280;2038;51.728;6.674;2022-08-19T09:47:52;100764.94;;;25.02;87.82
47753;BME280;2038;51.728;6.674;2022-08-19T09:50:20;100760.59;;;24.99;86.58
47753;BME280;2038;51.728;6.674;2022-08-19T09:52:47;100757.09;;;25.00;86.55
47753;BME280;2038;51.728;6.674;2022-08-19T09:55:13;100754.56;;;25.11;86.15
47753;BME280;2038;51.728;6.674;2022-08-19T09:57:41;100761.44;;;25.00;86.94
47753;BME280;2038;51.728;6.674;2022-08-19T10:00:09;100759.78;;;25.09;86.77
47753;BME280;2038;51.728;6.674;2022-08-19T10:02:36;100758.84;;;25.04;86.81
47753;BME280;2038;51.728;6.674;2022-08-19T10:05:03;100752.69;;;24.92;86.96
47753;BME280;2038;51.728;6.674;2022-08-19T10:07:48;100756.91;;;24.78;87.22
47753;BME280;2038;51.728;6.674;2022-08-19T10:10:14;100757.59;;;24.60;87.18
47753;BME280;2038;51.728;6.674;2022-08-19T10:12:41;100754.22;;;24.70;87.81
47753;BME280;2038;51.728;6.674;2022-08-19T10:15:08;100755.13;;;24.74;88.12
47753;BME280;2038;51.728;6.674;2022-08-19T10:17:35;100758.72;;;24.85;87.77
47753;BME280;2038;51.728;6.674;2022-08-19T10:20:02;100747.47;;;24.90;88.24
47753;BME280;2038;51.728;6.674;2022-08-19T10:22:30;100751.91;;;25.03;86.25
47753;BME280;2038;51.728;6.674;2022-08-19T10:24:56;100744.91;;;24.95;85.19
47753;BME280;2038;51.728;6.674;2022-08-19T10:27:23;100745.13;;;25.30;85.65
47753;BME280;2038;51.728;6.674;2022-08-19T10:29:49;100748.56;;;25.26;84.47
47753;BME280;2038;51.728;6.674;2022-08-19T10:32:16;100754.72;;;25.35;82.81
47753;BME280;2038;51.728;6.674;2022-08-19T10:34:42;100732.03;;;25.28;82.67
47753;BME280;2038;51.728;6.674;2022-08-19T10:37:08;100751.22;;;25.36;83.09
47753;BME280;2038;51.728;6.674;2022-08-19T10:39:36;100749.56;;;25.49;83.38
47753;BME280;2038;51.728;6.674;2022-08-19T10:42:06;100737.31;;;25.40;82.23
47753;BME280;2038;51.728;6.674;2022-08-19T10:44:36;100733.00;;;25.48;82.55
47753;BME280;2038;51.728;6.674;2022-08-19T10:47:03;100733.97;;;25.56;81.10
47753;BME280;2038;51.728;6.674;2022-08-19T10:49:30;100734.88;;;25.66;80.45
47753;BME280;2038;51.728;6.674;2022-08-19T10:51:58;100737.56;;;25.80;79.75
47753;BME280;2038;51.728;6.674;2022-08-19T10:54:43;100744.53;;;25.84;78.40
47753;BME280;2038;51.728;6.674;2022-08-19T10:57:30;100733.22;;;25.94;79.25
47753;BME280;2038;51.728;6.674;2022-08-19T10:59:57;100734.97;;;25.95;75.58
47753;BME280;2038;51.728;6.674;2022-08-19T11:02:23;100726.28;;;26.09;75.63
47753;BME280;2038;51.728;6.674;2022-08-19T11:04:49;100728.97;;;26.22;74.84
47753;BME280;2038;51.728;6.674;2022-08-19T11:07:17;100742.91;;;26.22;73.56
47753;BME280;2038;51.728;6.674;2022-08-19T11:09:43;100749.03;;;26.32;73.41
47753;BME280;2038;51.728;6.674;2022-08-19T11:12:10;100749.00;;;26.29;73.38
47753;BME280;2038;51.728;6.674;2022-08-19T11:14:38;100738.50;;;26.17;73.71
47753;BME280;2038;51.728;6.674;2022-08-19T11:17:05;100737.63;;;26.18;72.96
47753;BME280;2038;51.728;6.674;2022-08-19T11:19:33;100745.47;;;26.15;72.29
47753;BME280;2038;51.728;6.674;2022-08-19T11:22:00;100742.03;;;26.31;72.03
47753;BME280;2038;51.728;6.674;2022-08-19T11:24:29;100745.53;;;26.49;71.22
47753;BME280;2038;51.728;6.674;2022-08-19T11:27:05;100740.31;;;26.51;71.70
47753;BME280;2038;51.728;6.674;2022-08-19T11:29:35;100737.69;;;26.71;72.16
47753;BME280;2038;51.728;6.674;2022-08-19T11:32:09;100736.81;;;26.78;70.04
47753;BME280;2038;51.728;6.674;2022-08-19T11:34:36;100740.31;;;26.84;70.08
47753;BME280;2038;51.728;6.674;2022-08-19T11:37:03;100733.34;;;26.85;71.28
47753;BME280;2038;51.728;6.674;2022-08-19T11:39:33;100730.69;;;27.09;71.22
47753;BME280;2038;51.728;6.674;2022-08-19T11:42:00;100721.13;;;26.94;70.03
47753;BME280;2038;51.728;6.674;2022-08-19T11:44:50;100726.31;;;27.22;69.10
47753;BME280;2038;51.728;6.674;2022-08-19T11:47:17;100729.75;;;27.34;68.05
47753;BME280;2038;51.728;6.674;2022-08-19T11:49:43;100727.09;;;27.53;69.14
47753;BME280;2038;51.728;6.674;2022-08-19T11:52:09;100729.66;;;27.66;69.71
47753;BME280;2038;51.728;6.674;2022-08-19T11:54:37;100733.06;;;27.86;68.81
47753;BME280;2038;51.728;6.674;2022-08-19T11:57:04;100726.84;;;28.03;68.55
47753;BME280;2038;51.728;6.674;2022-08-19T11:59:30;100737.31;;;28.07;69.52
47753;BME280;2038;51.728;6.674;2022-08-19T12:01:57;100732.16;;;27.92;69.67
47753;BME280;2038;51.728;6.674;2022-08-19T12:04:23;100735.56;;;28.08;69.25
47753;BME280;2038;51.728;6.674;2022-08-19T12:06:50;100735.59;;;28.02;68.74
47753;BME280;2038;51.728;6.674;2022-08-19T12:09:16;100734.69;;;28.12;68.60
47753;BME280;2038;51.728;6.674;2022-08-19T12:11:43;100730.25;;;28.21;68.74
47753;BME280;2038;51.728;6.674;2022-08-19T12:14:12;100724.94;;;28.32;68.19
47753;BME280;2038;51.728;6.674;2022-08-19T12:16:39;100728.34;;;28.45;68.19
47753;BME280;2038;51.728;6.674;2022-08-19T12:19:07;100736.22;;;28.42;65.90
47753;BME280;2038;51.728;6.674;2022-08-19T12:21:35;100729.19;;;28.47;65.08
47753;BME280;2038;51.728;6.674;2022-08-19T12:24:03;100715.22;;;28.46;65.75
47753;BME280;2038;51.728;6.674;2022-08-19T12:26:31;100719.69;;;28.29;66.50
47753;BME280;2038;51.728;6.674;2022-08-19T12:28:58;100725.84;;;28.26;66.90
47753;BME280;2038;51.728;6.674;2022-08-19T12:31:26;100725.91;;;28.20;66.91
47753;BME280;2038;51.728;6.674;2022-08-19T12:33:53;100718.84;;;28.31;66.73
47753;BME280;2038;51.728;6.674;2022-08-19T12:36:20;100722.41;;;28.20;66.63
47753;BME280;2038;51.728;6.674;2022-08-19T12:38:48;100719.88;;;28.03;66.24
47753;BME280;2038;51.728;6.674;2022-08-19T12:41:16;100706.75;;;28.03;65.25
47753;BME280;2038;51.728;6.674;2022-08-19T12:43:44;100712.88;;;28.01;65.86
47753;BME280;2038;51.728;6.674;2022-08-19T12:46:11;100717.28;;;27.96;66.44
47753;BME280;2038;51.728;6.674;2022-08-19T12:48:38;100706.84;;;27.85;67.55
47753;BME280;2038;51.728;6.674;2022-08-19T12:51:09;100712.88;;;28.02;67.45
47753;BME280;2038;51.728;6.674;2022-08-19T12:53:38;100711.16;;;28.00;68.14
47753;BME280;2038;51.728;6.674;2022-08-19T12:56:05;100716.34;;;28.06;68.12
47753;BME280;2038;51.728;6.674;2022-08-19T12:58:36;100710.25;;;28.04;68.43
47753;BME280;2038;51.728;6.674;2022-08-19T13:01:08;100709.41;;;27.99;68.58
47753;BME280;2038;51.728;6.674;2022-08-19T13:03:37;100708.47;;;28.13;68.99
47753;BME280;2038;51.728;6.674;2022-08-19T13:06:04;100701.47;;;28.15;68.83
47753;BME280;2038;51.728;6.674;2022-08-19T13:08:30;100706.69;;;28.18;68.30
47753;BME280;2038;51.728;6.674;2022-08-19T13:11:02;100704.00;;;28.26;68.89
47753;BME280;2038;51.728;6.674;2022-08-19T13:13:32;100707.47;;;28.29;68.86
47753;BME280;2038;51.728;6.674;2022-08-19T13:16:01;100705.75;;;28.27;68.04
47753;BME280;2038;51.728;6.674;2022-08-19T13:18:29;100702.44;;;27.96;69.00
47753;BME280;2038;51.728;6.674;2022-08-19T13:20:55;100704.19;;;27.96;67.92